createdAt,value
2022-09-09T00:05:19.405Z,1.33
2022-09-09T00:07:52.701Z,1.70
2022-09-09T00:10:22.086Z,1.50
2022-09-09T00:13:03.371Z,1.63
2022-09-09T00:15:43.905Z,1.60
2022-09-09T00:18:48.497Z,1.48
2022-09-09T00:21:17.056Z,1.60
2022-09-09T00:23:56.905Z,1.65
2022-09-09T00:26:36.606Z,1.42
2022-09-09T00:29:25.159Z,1.45
2022-09-09T00:31:58.512Z,1.80
2022-09-09T00:34:27.314Z,1.73
2022-09-09T00:36:57.091Z,1.88
2022-09-09T00:39:31.835Z,1.52
2022-09-09T00:42:16.617Z,1.90
2022-09-09T00:45:12.083Z,2.05
2022-09-09T00:48:02.956Z,1.90
2022-09-09T00:50:30.684Z,2.08
2022-09-09T00:53:11.618Z,2.30
2022-09-09T00:55:43.488Z,2.42
2022-09-09T00:58:10.735Z,1.80
2022-09-09T01:00:55.720Z,2.33
2022-09-09T01:03:37.986Z,1.88
2022-09-09T01:06:29.804Z,2.03
2022-09-09T01:09:27.556Z,1.98
2022-09-09T01:12:15.855Z,1.77
2022-09-09T01:14:48.371Z,2.30
2022-09-09T01:17:31.309Z,1.90
2022-09-09T01:20:11.576Z,1.77
2022-09-09T01:23:03.272Z,1.83
2022-09-09T01:25:44.914Z,1.98
2022-09-09T01:28:20.328Z,1.90
2022-09-09T01:30:47.072Z,1.67
2022-09-09T01:33:19.106Z,1.65
2022-09-09T01:36:08.653Z,1.50
2022-09-09T01:38:36.790Z,1.80
2022-09-09T01:41:03.838Z,2.35
2022-09-09T01:43:30.942Z,2.15
2022-09-09T01:46:01.245Z,1.98
2022-09-09T01:48:29.317Z,1.90
2022-09-09T01:50:56.222Z,1.95
2022-09-09T01:53:23.549Z,2.30
2022-09-09T01:56:23.740Z,1.77
2022-09-09T01:59:23.975Z,1.70
2022-09-09T02:02:11.043Z,1.85
2022-09-09T02:04:42.037Z,1.83
2022-09-09T02:07:28.020Z,1.77
2022-09-09T02:10:12.175Z,1.85
2022-09-09T02:12:46.739Z,1.80
2022-09-09T02:15:34.899Z,1.67
2022-09-09T02:18:06.035Z,2.10
2022-09-09T02:20:35.221Z,1.80
2022-09-09T02:23:03.729Z,1.88
2022-09-09T02:25:30.781Z,1.92
2022-09-09T02:28:01.123Z,1.65
2022-09-09T02:30:30.468Z,1.67
2022-09-09T02:33:00.447Z,1.98
2022-09-09T02:35:29.352Z,1.75
2022-09-09T02:38:00.380Z,2.08
2022-09-09T02:40:26.996Z,2.78
2022-09-09T02:42:55.854Z,2.30
2022-09-09T02:45:29.462Z,2.45
2022-09-09T02:48:07.331Z,2.03
2022-09-09T02:50:50.127Z,1.88
2022-09-09T02:53:21.891Z,2.05
2022-09-09T02:55:55.591Z,1.95
2022-09-09T02:58:22.707Z,1.92
2022-09-09T03:00:51.659Z,2.30
2022-09-09T03:03:20.525Z,2.38
2022-09-09T03:05:47.718Z,2.22
2022-09-09T03:08:14.663Z,2.35
2022-09-09T03:10:41.276Z,1.67
2022-09-09T03:13:08.885Z,2.15
2022-09-09T03:15:35.975Z,1.80
2022-09-09T03:18:02.898Z,2.05
2022-09-09T03:20:30.967Z,2.00
2022-09-09T03:22:59.746Z,2.38
2022-09-09T03:25:26.624Z,2.05
2022-09-09T03:27:55.793Z,2.15
2022-09-09T03:30:23.870Z,2.10
2022-09-09T03:32:50.510Z,1.75
2022-09-09T03:35:17.834Z,2.00
2022-09-09T03:37:44.597Z,1.88
2022-09-09T03:40:11.707Z,1.77
2022-09-09T03:42:39.530Z,1.52
2022-09-09T03:45:08.617Z,1.50
2022-09-09T03:47:35.547Z,1.73
2022-09-09T03:50:02.213Z,1.55
2022-09-09T03:52:28.901Z,1.42
2022-09-09T03:54:56.331Z,2.15
2022-09-09T03:57:23.024Z,2.22
2022-09-09T03:59:49.664Z,1.50
2022-09-09T04:02:16.587Z,1.70
2022-09-09T04:04:43.350Z,1.50
2022-09-09T04:07:09.947Z,1.73
2022-09-09T04:09:36.612Z,1.67
2022-09-09T04:12:03.497Z,1.65
2022-09-09T04:14:30.148Z,2.00
2022-09-09T04:16:58.228Z,2.05
2022-09-09T04:19:24.928Z,1.45
2022-09-09T04:21:52.565Z,1.42
2022-09-09T04:24:19.771Z,1.70
2022-09-09T04:26:46.483Z,1.27
2022-09-09T04:29:13.051Z,1.80
2022-09-09T04:31:42.895Z,1.38
2022-09-09T04:34:12.870Z,1.33
2022-09-09T04:36:41.317Z,1.80
2022-09-09T04:39:08.327Z,1.60
2022-09-09T04:41:35.169Z,1.20
2022-09-09T04:44:02.016Z,1.60
2022-09-09T04:46:28.764Z,1.50
2022-09-09T04:48:55.454Z,1.50
2022-09-09T04:51:23.139Z,1.25
2022-09-09T04:53:51.644Z,1.20
2022-09-09T04:56:19.131Z,1.27
2022-09-09T04:58:46.489Z,1.17
2022-09-09T05:01:23.069Z,1.27
2022-09-09T05:03:49.791Z,1.08
2022-09-09T05:06:21.426Z,1.30
2022-09-09T05:08:49.159Z,1.15
2022-09-09T05:11:22.246Z,1.50
2022-09-09T05:13:49.012Z,1.40
2022-09-09T05:16:15.888Z,1.10
2022-09-09T05:18:43.968Z,1.15
2022-09-09T05:21:11.628Z,1.10
2022-09-09T05:23:39.003Z,1.70
2022-09-09T05:26:07.075Z,2.22
2022-09-09T05:28:36.328Z,1.33
2022-09-09T05:31:13.547Z,1.35
2022-09-09T05:33:41.900Z,1.65
2022-09-09T05:36:11.768Z,1.50
2022-09-09T05:38:38.933Z,1.30
2022-09-09T05:41:06.424Z,1.60
2022-09-09T05:43:33.653Z,1.75
2022-09-09T05:46:02.547Z,1.30
2022-09-09T05:48:30.919Z,1.48
2022-09-09T05:50:57.733Z,1.95
2022-09-09T05:53:24.424Z,1.17
2022-09-09T05:55:51.142Z,1.40
2022-09-09T05:58:18.302Z,1.20
2022-09-09T06:00:45.032Z,1.38
2022-09-09T06:03:13.073Z,1.48
2022-09-09T06:05:39.747Z,1.73
2022-09-09T06:08:06.654Z,1.52
2022-09-09T06:10:33.287Z,2.78
2022-09-09T06:12:59.880Z,1.50
2022-09-09T06:15:28.014Z,1.48
2022-09-09T06:17:57.815Z,1.50
2022-09-09T06:20:25.882Z,1.33
2022-09-09T06:22:52.776Z,1.48
2022-09-09T06:25:19.565Z,1.58
2022-09-09T06:27:50.676Z,1.23
2022-09-09T06:30:18.377Z,1.55
2022-09-09T06:32:46.789Z,1.67
2022-09-09T06:35:14.672Z,1.30
2022-09-09T06:37:45.480Z,1.35
2022-09-09T06:40:12.374Z,1.50
2022-09-09T06:42:40.241Z,2.17
2022-09-09T06:45:09.546Z,1.45
2022-09-09T06:47:36.470Z,1.20
2022-09-09T06:50:03.338Z,1.63
2022-09-09T06:52:29.880Z,1.55
2022-09-09T06:54:56.538Z,1.20
2022-09-09T06:57:38.792Z,1.50
2022-09-09T07:00:06.188Z,1.48
2022-09-09T07:02:33.272Z,1.38
2022-09-09T07:05:00.765Z,1.98
2022-09-09T07:07:28.252Z,1.70
2022-09-09T07:09:54.851Z,1.42
2022-09-09T07:12:21.449Z,1.55
2022-09-09T07:14:48.053Z,2.05
2022-09-09T07:17:15.371Z,1.60
2022-09-09T07:19:42.127Z,1.75
2022-09-09T07:22:12.317Z,1.38
2022-09-09T07:24:38.913Z,1.38
2022-09-09T07:27:06.558Z,1.23
2022-09-09T07:29:33.570Z,1.02
2022-09-09T07:32:00.326Z,1.48
2022-09-09T07:34:26.888Z,1.35
2022-09-09T07:36:53.490Z,1.27
2022-09-09T07:39:20.102Z,1.30
2022-09-09T07:41:48.585Z,1.23
2022-09-09T07:44:22.321Z,0.93
2022-09-09T07:46:49.070Z,1.20
2022-09-09T07:49:16.218Z,1.15
2022-09-09T07:51:46.163Z,1.42
2022-09-09T07:54:15.738Z,1.42
2022-09-09T07:56:43.443Z,1.20
2022-09-09T07:59:11.593Z,1.20
2022-09-09T08:01:40.771Z,1.25
2022-09-09T08:04:10.649Z,1.30
2022-09-09T08:06:41.761Z,2.40
2022-09-09T08:09:10.052Z,1.40
2022-09-09T08:11:39.313Z,1.55
2022-09-09T08:14:08.659Z,1.90
2022-09-09T08:16:38.414Z,1.70
2022-09-09T08:19:06.534Z,1.33
2022-09-09T08:21:35.050Z,1.40
2022-09-09T08:24:03.608Z,1.65
2022-09-09T08:26:32.703Z,1.63
2022-09-09T08:29:01.110Z,1.10
2022-09-09T08:31:34.571Z,1.08
2022-09-09T08:34:04.327Z,1.20
2022-09-09T08:36:50.858Z,1.52
2022-09-09T08:39:19.789Z,3.47
2022-09-09T08:42:04.360Z,1.42
2022-09-09T08:47:40.715Z,1.17
2022-09-09T08:50:17.667Z,2.30
2022-09-09T08:52:53.269Z,1.20
2022-09-09T08:55:46.692Z,1.50
2022-09-09T08:58:16.762Z,1.23
2022-09-09T09:01:01.111Z,1.25
2022-09-09T09:03:44.926Z,1.38
2022-09-09T09:06:25.005Z,1.42
2022-09-09T09:09:01.162Z,1.30
2022-09-09T09:11:27.730Z,1.38
2022-09-09T09:14:01.091Z,1.20
2022-09-09T09:16:36.243Z,1.75
2022-09-09T09:19:03.102Z,1.38
2022-09-09T09:21:44.806Z,1.30
2022-09-09T09:24:44.155Z,1.55
2022-09-09T09:27:36.282Z,1.20
2022-09-09T09:30:28.496Z,1.23
2022-09-09T09:33:01.950Z,1.55
2022-09-09T09:35:28.656Z,1.30
2022-09-09T09:40:53.907Z,0.82
2022-09-09T09:43:28.262Z,1.05
2022-09-09T09:46:16.226Z,1.00
2022-09-09T09:48:42.583Z,0.90
2022-09-09T09:51:17.070Z,1.42
2022-09-09T09:53:44.381Z,0.90
2022-09-09T09:56:14.039Z,0.90
2022-09-09T09:58:46.667Z,0.77
2022-09-09T10:01:25.370Z,1.00
2022-09-09T10:03:59.590Z,1.30
2022-09-09T10:06:34.416Z,0.90
2022-09-09T10:09:05.275Z,1.13
2022-09-09T10:11:44.563Z,1.20
2022-09-09T10:14:23.182Z,1.10
2022-09-09T10:17:01.550Z,1.20
2022-09-09T10:19:33.472Z,1.10
2022-09-09T10:22:29.260Z,1.05
2022-09-09T10:25:14.583Z,1.30
2022-09-09T10:27:45.208Z,1.10
2022-09-09T10:30:23.363Z,0.70
2022-09-09T10:33:02.024Z,1.05
2022-09-09T10:35:34.233Z,0.90
2022-09-09T10:38:09.987Z,1.15
2022-09-09T10:40:52.481Z,0.93
2022-09-09T10:43:31.135Z,1.00
2022-09-09T10:46:24.056Z,1.05
2022-09-09T10:49:19.432Z,1.02
2022-09-09T10:52:03.903Z,1.10
2022-09-09T10:55:17.526Z,1.83
2022-09-09T10:57:53.160Z,1.27
2022-09-09T11:00:24.260Z,1.40
2022-09-09T11:03:03.142Z,1.50
2022-09-09T11:05:42.870Z,1.27
2022-09-09T11:08:29.650Z,1.30
2022-09-09T11:11:08.247Z,1.40
2022-09-09T11:13:55.180Z,1.00
2022-09-09T11:16:53.056Z,1.00
2022-09-09T11:19:35.623Z,1.10
2022-09-09T11:22:08.325Z,0.93
2022-09-09T11:24:42.557Z,1.50
2022-09-09T11:27:31.257Z,1.42
2022-09-09T11:30:32.027Z,0.90
2022-09-09T11:33:48.172Z,1.02
2022-09-09T11:36:17.871Z,1.10
2022-09-09T11:38:49.541Z,1.05
2022-09-09T11:41:21.511Z,1.00
2022-09-09T11:43:58.303Z,1.30
2022-09-09T11:46:36.226Z,1.00
2022-09-09T11:49:06.283Z,1.10
2022-09-09T11:51:34.684Z,1.10
2022-09-09T11:54:24.184Z,1.17
2022-09-09T11:56:53.405Z,0.90
2022-09-09T11:59:42.256Z,1.10
2022-09-09T12:02:48.925Z,1.50
2022-09-09T12:05:16.522Z,1.00
2022-09-09T12:07:54.579Z,1.50
2022-09-09T12:10:33.828Z,0.90
2022-09-09T12:13:22.186Z,1.13
2022-09-09T12:16:03.469Z,1.20
2022-09-09T12:18:41.461Z,1.20
2022-09-09T12:21:54.497Z,1.42
2022-09-09T12:24:37.408Z,1.75
2022-09-09T12:27:16.198Z,1.20
2022-09-09T12:30:01.430Z,1.75
2022-09-09T12:32:29.914Z,0.95
2022-09-09T12:35:03.291Z,1.10
2022-09-09T12:37:58.011Z,1.10
2022-09-09T12:40:27.245Z,1.25
2022-09-09T12:42:54.832Z,1.00
2022-09-09T12:45:27.049Z,0.90
2022-09-09T12:48:05.101Z,1.00
2022-09-09T12:50:36.409Z,1.02
2022-09-09T12:53:08.675Z,0.60
2022-09-09T12:55:40.120Z,0.55
2022-09-09T12:58:08.047Z,0.40
2022-09-09T13:00:35.763Z,0.50
2022-09-09T13:03:15.691Z,0.40
2022-09-09T13:05:42.504Z,0.28
2022-09-09T13:08:16.297Z,0.30
2022-09-09T13:11:02.496Z,0.28
2022-09-09T13:13:37.092Z,0.20
2022-09-09T13:16:08.305Z,0.30
2022-09-09T13:18:37.235Z,0.47
2022-09-09T13:21:04.136Z,0.52
2022-09-09T13:23:33.288Z,0.70
2022-09-09T13:26:19.557Z,0.80
2022-09-09T13:28:47.279Z,0.60
2022-09-09T13:31:29.851Z,0.75
2022-09-09T13:33:57.045Z,0.32
2022-09-09T13:36:32.332Z,0.50
2022-09-09T13:39:01.878Z,0.77
2022-09-09T13:41:45.208Z,0.80
2022-09-09T13:44:28.038Z,0.57
2022-09-09T13:47:05.768Z,0.73
2022-09-09T13:49:36.225Z,0.70
2022-09-09T13:52:12.322Z,0.60
2022-09-09T13:54:39.215Z,0.50
2022-09-09T13:57:06.490Z,0.95
2022-09-09T14:02:22.279Z,0.85
2022-09-09T14:04:51.695Z,0.55
2022-09-09T14:07:19.435Z,0.70
2022-09-09T14:09:50.735Z,0.65
2022-09-09T14:12:17.707Z,0.80
2022-09-09T14:14:44.807Z,0.75
2022-09-09T14:17:11.538Z,0.68
2022-09-09T14:19:38.233Z,1.05
2022-09-09T14:22:05.182Z,1.17
2022-09-09T14:24:31.895Z,0.80
2022-09-09T14:26:58.523Z,0.90
2022-09-09T14:29:26.303Z,0.90
2022-09-09T14:31:53.122Z,0.70
2022-09-09T14:34:19.771Z,0.90
2022-09-09T14:36:46.695Z,0.70
2022-09-09T14:39:13.531Z,0.80
2022-09-09T14:41:40.124Z,0.75
2022-09-09T14:44:06.737Z,0.82
2022-09-09T14:46:34.394Z,0.60
2022-09-09T14:49:01.100Z,0.60
2022-09-09T14:51:29.540Z,0.90
2022-09-09T14:53:58.232Z,0.70
2022-09-09T14:56:28.100Z,0.60
2022-09-09T14:58:56.311Z,0.63
2022-09-09T15:01:24.161Z,0.73
2022-09-09T15:04:02.881Z,0.82
2022-09-09T15:06:32.563Z,0.70
2022-09-09T15:08:59.810Z,0.90
2022-09-09T15:11:35.378Z,0.70
2022-09-09T15:14:02.044Z,0.80
2022-09-09T15:16:29.672Z,0.70
2022-09-09T15:18:58.400Z,0.70
2022-09-09T15:21:27.734Z,0.73
2022-09-09T15:23:55.540Z,0.70
2022-09-09T15:26:22.228Z,1.13
2022-09-09T15:28:50.634Z,0.90
2022-09-09T15:31:22.838Z,0.90
2022-09-09T15:33:53.354Z,0.90
2022-09-09T15:36:22.878Z,0.90
2022-09-09T15:38:50.484Z,1.17
2022-09-09T15:41:19.053Z,0.77
2022-09-09T15:43:47.301Z,1.10
2022-09-09T15:46:38.289Z,0.90
2022-09-09T15:49:15.778Z,0.68
2022-09-09T15:51:45.192Z,0.73
2022-09-09T15:54:24.015Z,0.70
2022-09-09T15:56:58.800Z,0.80
2022-09-09T15:59:27.092Z,0.70
2022-09-09T16:01:53.799Z,0.70
2022-09-09T16:04:24.277Z,0.80
2022-09-09T16:06:55.908Z,0.68
2022-09-09T16:09:22.919Z,0.70
2022-09-09T16:11:49.526Z,0.80
2022-09-09T16:14:16.953Z,0.88
2022-09-09T16:16:43.902Z,0.70
2022-09-09T16:19:13.472Z,0.80
2022-09-09T16:21:45.872Z,1.00
2022-09-09T16:24:14.772Z,1.00
2022-09-09T16:26:47.140Z,0.98
2022-09-09T16:29:15.304Z,0.80
2022-09-09T16:31:42.618Z,0.77
2022-09-09T16:34:09.982Z,0.88
2022-09-09T16:36:40.059Z,0.80
2022-09-09T16:39:18.480Z,0.90
2022-09-09T16:41:46.745Z,1.02
2022-09-09T16:44:14.762Z,1.10
2022-09-09T16:46:44.006Z,1.30
2022-09-09T16:49:19.196Z,0.88
2022-09-09T16:51:53.987Z,0.63
2022-09-09T16:54:21.065Z,0.73
2022-09-09T16:56:48.880Z,0.70
2022-09-09T16:59:24.371Z,0.70
2022-09-09T17:01:52.522Z,0.60
2022-09-09T17:04:21.657Z,0.57
2022-09-09T17:06:53.032Z,0.57
2022-09-09T17:09:21.132Z,0.45
2022-09-09T17:11:51.324Z,0.60
2022-09-09T17:14:20.117Z,0.60
2022-09-09T17:16:47.542Z,0.80
2022-09-09T17:19:14.334Z,0.60
2022-09-09T17:22:00.069Z,0.50
2022-09-09T17:24:29.828Z,0.65
2022-09-09T17:26:56.423Z,0.70
2022-09-09T17:29:23.294Z,0.70
2022-09-09T17:31:50.891Z,0.60
2022-09-09T17:34:17.643Z,1.95
2022-09-09T17:36:44.283Z,0.82
2022-09-09T17:39:10.987Z,0.50
2022-09-09T17:41:39.829Z,0.82
2022-09-09T17:46:41.958Z,0.73
2022-09-09T17:49:12.978Z,0.73
2022-09-09T17:51:42.240Z,0.70
2022-09-09T17:54:14.953Z,0.52
2022-09-09T17:56:42.451Z,1.20
2022-09-09T17:59:10.767Z,0.70
2022-09-09T18:01:40.667Z,0.60
2022-09-09T18:04:09.668Z,1.00
2022-09-09T18:06:39.409Z,0.80
2022-09-09T18:09:10.190Z,0.55
2022-09-09T18:11:45.535Z,1.52
2022-09-09T18:14:17.958Z,0.70
2022-09-09T18:16:45.733Z,1.00
2022-09-09T18:19:14.275Z,0.60
2022-09-09T18:21:42.841Z,0.77
2022-09-09T18:24:11.563Z,0.85
2022-09-09T18:26:39.923Z,0.70
2022-09-09T18:29:10.341Z,0.70
2022-09-09T18:31:38.034Z,0.80
2022-09-09T18:34:06.844Z,0.73
2022-09-09T18:36:46.778Z,0.80
2022-09-09T18:39:16.742Z,0.70
2022-09-09T18:41:46.198Z,0.60
2022-09-09T18:44:19.144Z,0.63
2022-09-09T18:46:46.669Z,1.10
2022-09-09T18:49:15.409Z,0.70
2022-09-09T18:51:44.750Z,0.60
2022-09-09T18:54:21.792Z,1.15
2022-09-09T18:56:49.512Z,0.43
2022-09-09T18:59:20.591Z,0.65
2022-09-09T19:01:52.805Z,0.40
2022-09-09T19:04:22.126Z,0.50
2022-09-09T19:06:49.599Z,0.63
2022-09-09T19:09:18.444Z,0.40
2022-09-09T19:11:46.357Z,0.40
2022-09-09T19:14:16.372Z,0.38
2022-09-09T19:16:45.393Z,0.30
2022-09-09T19:19:15.363Z,0.40
2022-09-09T19:21:42.423Z,0.25
2022-09-09T19:24:34.159Z,0.47
2022-09-09T19:27:03.669Z,0.28
2022-09-09T19:29:32.592Z,0.75
2022-09-09T19:34:48.385Z,0.25
2022-09-09T19:37:18.237Z,0.32
2022-09-09T19:39:45.967Z,0.30
2022-09-09T19:42:12.979Z,0.30
2022-09-09T19:44:39.662Z,0.50
2022-09-09T19:47:07.179Z,0.43
2022-09-09T19:49:35.662Z,0.22
2022-09-09T19:52:03.491Z,0.32
2022-09-09T19:54:30.264Z,0.40
2022-09-09T19:56:56.942Z,0.38
2022-09-09T19:59:23.691Z,0.32
2022-09-09T20:01:50.365Z,0.32
2022-09-09T20:04:18.637Z,0.30
2022-09-09T20:06:46.293Z,0.40
2022-09-09T20:09:16.001Z,0.40
2022-09-09T20:11:43.999Z,0.45
2022-09-09T20:14:11.639Z,0.50
2022-09-09T20:16:39.153Z,0.60
2022-09-09T20:19:07.359Z,0.40
2022-09-09T20:21:41.034Z,0.40
2022-09-09T20:24:12.422Z,0.40
2022-09-09T20:26:39.478Z,0.50
2022-09-09T20:29:16.311Z,0.47
2022-09-09T20:31:44.434Z,0.50
2022-09-09T20:34:14.400Z,0.50
2022-09-09T20:36:41.664Z,0.40
2022-09-09T20:39:12.326Z,0.50
2022-09-09T20:41:40.131Z,0.55
2022-09-09T20:44:12.216Z,0.40
2022-09-09T20:46:41.259Z,0.70
2022-09-09T20:49:09.757Z,0.70
2022-09-09T20:51:37.232Z,0.45
2022-09-09T20:54:10.920Z,0.40
2022-09-09T20:56:41.072Z,0.55
2022-09-09T20:59:11.334Z,0.63
2022-09-09T21:01:38.902Z,1.33
2022-09-09T21:04:06.281Z,0.63
2022-09-09T21:06:33.015Z,0.55
2022-09-09T21:08:59.664Z,0.50
2022-09-09T21:11:26.482Z,0.70
2022-09-09T21:13:53.132Z,0.40
2022-09-09T21:16:21.111Z,1.17
2022-09-09T21:18:49.114Z,0.60
2022-09-09T21:21:16.544Z,0.70
2022-09-09T21:23:43.113Z,0.60
2022-09-09T21:26:10.007Z,0.57
2022-09-09T21:28:37.049Z,0.47
2022-09-09T21:31:05.566Z,0.70
2022-09-09T21:33:34.197Z,0.60
2022-09-09T21:36:05.980Z,0.60
2022-09-09T21:38:33.718Z,0.73
2022-09-09T21:41:05.133Z,0.60
2022-09-09T21:43:32.378Z,0.50
2022-09-09T21:45:59.340Z,0.30
2022-09-09T21:48:26.277Z,0.50
2022-09-09T21:50:54.085Z,0.82
2022-09-09T21:53:21.114Z,0.68
2022-09-09T21:55:48.621Z,0.55
2022-09-09T21:58:16.190Z,0.50
2022-09-09T22:00:45.454Z,0.70
2022-09-09T22:03:14.688Z,0.70
2022-09-09T22:05:46.282Z,0.73
2022-09-09T22:08:28.483Z,0.52
2022-09-09T22:10:55.485Z,0.60
2022-09-09T22:13:22.097Z,1.25
2022-09-09T22:15:48.893Z,0.82
2022-09-09T22:18:16.045Z,0.60
2022-09-09T22:20:44.924Z,0.60
2022-09-09T22:23:12.865Z,0.60
2022-09-09T22:25:40.634Z,0.70
2022-09-09T22:28:09.170Z,0.80
2022-09-09T22:30:36.247Z,0.90
2022-09-09T22:33:02.943Z,0.60
2022-09-09T22:35:29.546Z,0.80
2022-09-09T22:37:56.977Z,0.70
2022-09-09T22:40:23.710Z,0.82
2022-09-09T22:42:52.723Z,0.68
2022-09-09T22:45:20.729Z,0.95
2022-09-09T22:47:47.623Z,0.98
2022-09-09T22:50:14.414Z,0.73
2022-09-09T22:52:41.047Z,0.63
2022-09-09T22:55:09.211Z,0.85
2022-09-09T22:57:36.157Z,0.50
2022-09-09T23:00:07.432Z,0.93
2022-09-09T23:02:37.463Z,0.88
2022-09-09T23:05:08.668Z,0.68
2022-09-09T23:07:36.605Z,0.70
2022-09-09T23:10:05.288Z,0.80
2022-09-09T23:12:31.965Z,0.80
2022-09-09T23:14:58.587Z,0.60
2022-09-09T23:17:25.771Z,0.70
2022-09-09T23:19:56.301Z,0.60
2022-09-09T23:22:26.919Z,0.80
2022-09-09T23:24:53.948Z,1.63
2022-09-09T23:27:24.051Z,0.70
2022-09-09T23:29:51.690Z,0.93
2022-09-09T23:32:18.531Z,0.68
2022-09-09T23:34:45.837Z,0.80
2022-09-09T23:37:13.136Z,0.80
2022-09-09T23:39:40.471Z,1.00
2022-09-09T23:42:08.403Z,0.80
2022-09-09T23:44:38.126Z,0.82
2022-09-09T23:47:05.726Z,1.00
2022-09-09T23:49:33.614Z,0.82
2022-09-09T23:52:04.217Z,0.85
2022-09-09T23:54:31.303Z,0.70
2022-09-09T23:56:58.012Z,0.93
2022-09-09T23:59:24.689Z,0.82
